sensor_id;sensor_type;location;lat;lon;timestamp;pressure;altitude;pressure_sealevel;temperature;humidity
72285;BME280;60220;53.552;10.092;2022-12-18T00:02:06;102733.53;;;-4.74;77.04
72285;BME280;60220;53.552;10.092;2022-12-18T00:04:36;102738.59;;;-4.54;76.16
72285;BME280;60220;53.552;10.092;2022-12-18T00:07:03;102731.75;;;-4.75;76.98
72285;BME280;60220;53.552;10.092;2022-12-18T00:09:30;102732.78;;;-4.52;75.99
72285;BME280;60220;53.552;10.092;2022-12-18T00:11:57;102729.06;;;-4.45;75.74
72285;BME280;60220;53.552;10.092;2022-12-18T00:14:27;102720.44;;;-4.67;76.89
72285;BME280;60220;53.552;10.092;2022-12-18T00:16:56;102727.91;;;-4.81;76.49
72285;BME280;60220;53.552;10.092;2022-12-18T00:19:28;102733.53;;;-4.74;76.44
72285;BME280;60220;53.552;10.092;2022-12-18T00:21:54;102729.22;;;-4.86;77.10
72285;BME280;60220;53.552;10.092;2022-12-18T00:24:27;102734.44;;;-4.74;77.29
72285;BME280;60220;53.552;10.092;2022-12-18T00:26:53;102738.38;;;-4.67;76.16
72285;BME280;60220;53.552;10.092;2022-12-18T00:29:23;102734.44;;;-4.52;75.88
72285;BME280;60220;53.552;10.092;2022-12-18T00:31:53;102740.22;;;-4.87;76.40
72285;BME280;60220;53.552;10.092;2022-12-18T00:34:19;102747.03;;;-4.55;76.06
72285;BME280;60220;53.552;10.092;2022-12-18T00:36:47;102753.19;;;-4.95;76.81
72285;BME280;60220;53.552;10.092;2022-12-18T00:39:14;102751.16;;;-4.67;76.70
72285;BME280;60220;53.552;10.092;2022-12-18T00:41:40;102752.97;;;-4.66;76.93
72285;BME280;60220;53.552;10.092;2022-12-18T00:44:25;102753.88;;;-4.66;76.59
72285;BME280;60220;53.552;10.092;2022-12-18T00:46:53;102751.63;;;-4.51;77.03
72285;BME280;60220;53.552;10.092;2022-12-18T00:49:20;102751.09;;;-4.47;76.94
72285;BME280;60220;53.552;10.092;2022-12-18T00:51:49;102753.53;;;-4.81;76.62
72285;BME280;60220;53.552;10.092;2022-12-18T00:54:16;102754.50;;;-4.58;77.25
72285;BME280;60220;53.552;10.092;2022-12-18T00:56:45;102744.41;;;-5.19;77.83
72285;BME280;60220;53.552;10.092;2022-12-18T00:59:20;102748.41;;;-4.81;76.35
72285;BME280;60220;53.552;10.092;2022-12-18T01:01:47;102745.81;;;-4.70;77.81
72285;BME280;60220;53.552;10.092;2022-12-18T01:04:14;102754.03;;;-4.74;75.74
72285;BME280;60220;53.552;10.092;2022-12-18T01:06:46;102755.97;;;-4.82;75.82
72285;BME280;60220;53.552;10.092;2022-12-18T01:09:13;102759.75;;;-4.99;75.92
72285;BME280;60220;53.552;10.092;2022-12-18T01:11:40;102761.44;;;-5.19;77.18
72285;BME280;60220;53.552;10.092;2022-12-18T01:14:06;102755.66;;;-5.27;77.55
72285;BME280;60220;53.552;10.092;2022-12-18T01:16:36;102776.66;;;-5.11;76.14
72285;BME280;60220;53.552;10.092;2022-12-18T01:19:05;102770.22;;;-4.96;75.93
72285;BME280;60220;53.552;10.092;2022-12-18T01:21:33;102755.34;;;-4.80;74.79
72285;BME280;60220;53.552;10.092;2022-12-18T01:24:02;102757.66;;;-4.93;75.65
72285;BME280;60220;53.552;10.092;2022-12-18T01:26:29;102766.41;;;-5.11;76.88
72285;BME280;60220;53.552;10.092;2022-12-18T01:28:56;102757.34;;;-5.28;77.19
72285;BME280;60220;53.552;10.092;2022-12-18T01:31:25;102759.78;;;-5.39;76.91
72285;BME280;60220;53.552;10.092;2022-12-18T01:33:55;102757.25;;;-5.49;77.92
72285;BME280;60220;53.552;10.092;2022-12-18T01:36:24;102757.22;;;-5.29;76.91
72285;BME280;60220;53.552;10.092;2022-12-18T01:38:56;102755.88;;;-4.94;76.00
72285;BME280;60220;53.552;10.092;2022-12-18T01:41:26;102758.47;;;-5.04;75.37
72285;BME280;60220;53.552;10.092;2022-12-18T01:47:14;102767.06;;;-5.03;75.19
72285;BME280;60220;53.552;10.092;2022-12-18T01:49:42;102766.16;;;-5.14;75.92
72285;BME280;60220;53.552;10.092;2022-12-18T01:52:08;102772.53;;;-4.99;75.52
72285;BME280;60220;53.552;10.092;2022-12-18T01:54:36;102772.28;;;-5.02;75.61
72285;BME280;60220;53.552;10.092;2022-12-18T01:57:05;102778.44;;;-5.10;75.91
72285;BME280;60220;53.552;10.092;2022-12-18T01:59:35;102775.78;;;-5.42;76.67
72285;BME280;60220;53.552;10.092;2022-12-18T02:02:03;102776.63;;;-5.01;74.99
72285;BME280;60220;53.552;10.092;2022-12-18T02:04:29;102771.31;;;-5.34;76.71
72285;BME280;60220;53.552;10.092;2022-12-18T02:07:07;102775.91;;;-5.40;76.51
72285;BME280;60220;53.552;10.092;2022-12-18T02:09:41;102768.84;;;-5.43;76.10
72285;BME280;60220;53.552;10.092;2022-12-18T02:12:14;102768.38;;;-5.39;76.73
72285;BME280;60220;53.552;10.092;2022-12-18T02:14:46;102779.00;;;-5.44;77.15
72285;BME280;60220;53.552;10.092;2022-12-18T02:17:18;102771.94;;;-5.27;76.49
72285;BME280;60220;53.552;10.092;2022-12-18T02:19:58;102764.03;;;-5.50;76.51
72285;BME280;60220;53.552;10.092;2022-12-18T02:22:37;102768.00;;;-5.53;76.88
72285;BME280;60220;53.552;10.092;2022-12-18T02:25:21;102770.78;;;-5.60;77.64
72285;BME280;60220;53.552;10.092;2022-12-18T02:27:54;102779.22;;;-5.11;76.26
72285;BME280;60220;53.552;10.092;2022-12-18T02:30:24;102774.25;;;-5.30;75.80
72285;BME280;60220;53.552;10.092;2022-12-18T02:32:52;102775.53;;;-5.25;75.78
72285;BME280;60220;53.552;10.092;2022-12-18T02:35:22;102783.06;;;-5.26;75.96
72285;BME280;60220;53.552;10.092;2022-12-18T02:37:53;102790.38;;;-5.41;75.97
72285;BME280;60220;53.552;10.092;2022-12-18T02:40:26;102788.03;;;-5.28;75.54
72285;BME280;60220;53.552;10.092;2022-12-18T02:43:02;102788.47;;;-5.23;75.25
72285;BME280;60220;53.552;10.092;2022-12-18T02:45:29;102797.38;;;-5.08;75.19
72285;BME280;60220;53.552;10.092;2022-12-18T02:47:55;102795.94;;;-4.84;73.71
72285;BME280;60220;53.552;10.092;2022-12-18T02:50:27;102782.91;;;-5.07;74.38
72285;BME280;60220;53.552;10.092;2022-12-18T02:53:06;102789.84;;;-5.47;75.18
72285;BME280;60220;53.552;10.092;2022-12-18T02:55:48;102787.66;;;-5.32;75.04
72285;BME280;60220;53.552;10.092;2022-12-18T02:58:28;102792.00;;;-5.11;74.58
72285;BME280;60220;53.552;10.092;2022-12-18T03:01:01;102796.25;;;-5.22;74.15
72285;BME280;60220;53.552;10.092;2022-12-18T03:03:35;102806.06;;;-4.86;73.15
72285;BME280;60220;53.552;10.092;2022-12-18T03:06:05;102809.34;;;-4.66;72.13
72285;BME280;60220;53.552;10.092;2022-12-18T03:08:39;102811.13;;;-4.65;72.07
72285;BME280;60220;53.552;10.092;2022-12-18T03:11:09;102805.31;;;-4.95;73.02
72285;BME280;60220;53.552;10.092;2022-12-18T03:13:42;102804.81;;;-5.61;74.75
72285;BME280;60220;53.552;10.092;2022-12-18T03:16:15;102806.31;;;-5.84;76.90
72285;BME280;60220;53.552;10.092;2022-12-18T03:18:47;102791.25;;;-5.40;76.38
72285;BME280;60220;53.552;10.092;2022-12-18T03:21:26;102798.41;;;-5.46;75.37
72285;BME280;60220;53.552;10.092;2022-12-18T03:24:00;102807.22;;;-5.12;74.22
72285;BME280;60220;53.552;10.092;2022-12-18T03:26:31;102798.94;;;-5.10;73.76
72285;BME280;60220;53.552;10.092;2022-12-18T03:29:08;102797.28;;;-5.30;74.56
72285;BME280;60220;53.552;10.092;2022-12-18T03:31:37;102808.38;;;-5.70;75.31
72285;BME280;60220;53.552;10.092;2022-12-18T03:34:12;102804.78;;;-5.92;76.65
72285;BME280;60220;53.552;10.092;2022-12-18T03:36:41;102801.88;;;-5.66;76.83
72285;BME280;60220;53.552;10.092;2022-12-18T03:39:10;102798.81;;;-5.52;76.26
72285;BME280;60220;53.552;10.092;2022-12-18T03:41:44;102804.03;;;-5.91;76.69
72285;BME280;60220;53.552;10.092;2022-12-18T03:44:21;102800.22;;;-5.35;75.52
72285;BME280;60220;53.552;10.092;2022-12-18T03:46:55;102805.34;;;-5.35;74.44
72285;BME280;60220;53.552;10.092;2022-12-18T03:49:30;102807.38;;;-5.41;75.13
72285;BME280;60220;53.552;10.092;2022-12-18T03:52:06;102797.91;;;-5.52;74.87
72285;BME280;60220;53.552;10.092;2022-12-18T03:54:38;102801.09;;;-5.75;76.15
72285;BME280;60220;53.552;10.092;2022-12-18T03:57:11;102794.44;;;-5.83;76.75
72285;BME280;60220;53.552;10.092;2022-12-18T03:59:43;102791.25;;;-5.60;76.68
72285;BME280;60220;53.552;10.092;2022-12-18T04:02:11;102783.59;;;-5.50;75.63
72285;BME280;60220;53.552;10.092;2022-12-18T04:04:39;102792.28;;;-5.69;76.28
72285;BME280;60220;53.552;10.092;2022-12-18T04:07:07;102791.03;;;-5.53;76.10
72285;BME280;60220;53.552;10.092;2022-12-18T04:09:38;102792.00;;;-5.72;75.14
72285;BME280;60220;53.552;10.092;2022-12-18T04:12:08;102791.75;;;-5.75;76.15
72285;BME280;60220;53.552;10.092;2022-12-18T04:14:38;102795.84;;;-5.67;75.36
72285;BME280;60220;53.552;10.092;2022-12-18T04:17:06;102788.97;;;-5.88;76.59
72285;BME280;60220;53.552;10.092;2022-12-18T04:19:35;102802.59;;;-5.77;76.32
72285;BME280;60220;53.552;10.092;2022-12-18T04:22:02;102801.25;;;-5.23;74.73
72285;BME280;60220;53.552;10.092;2022-12-18T04:24:31;102796.25;;;-5.22;73.75
72285;BME280;60220;53.552;10.092;2022-12-18T04:26:57;102798.78;;;-5.62;75.15
72285;BME280;60220;53.552;10.092;2022-12-18T04:29:28;102795.34;;;-5.32;73.88
72285;BME280;60220;53.552;10.092;2022-12-18T04:31:58;102805.72;;;-5.41;74.24
72285;BME280;60220;53.552;10.092;2022-12-18T04:34:26;102801.88;;;-5.66;74.87
72285;BME280;60220;53.552;10.092;2022-12-18T04:36:55;102809.66;;;-5.75;75.50
72285;BME280;60220;53.552;10.092;2022-12-18T04:39:22;102803.41;;;-5.68;75.49
72285;BME280;60220;53.552;10.092;2022-12-18T04:41:49;102799.69;;;-5.51;74.31
72285;BME280;60220;53.552;10.092;2022-12-18T04:44:16;102789.97;;;-5.45;74.90
72285;BME280;60220;53.552;10.092;2022-12-18T04:46:45;102791.75;;;-5.75;75.56
72285;BME280;60220;53.552;10.092;2022-12-18T04:49:15;102797.50;;;-5.16;74.25
72285;BME280;60220;53.552;10.092;2022-12-18T04:51:43;102794.97;;;-5.47;74.50
72285;BME280;60220;53.552;10.092;2022-12-18T04:54:09;102796.09;;;-5.84;75.21
72285;BME280;60220;53.552;10.092;2022-12-18T04:56:36;102796.34;;;-6.01;75.70
72285;BME280;60220;53.552;10.092;2022-12-18T04:59:10;102801.72;;;-5.78;76.02
72285;BME280;60220;53.552;10.092;2022-12-18T05:01:36;102806.06;;;-5.77;75.09
72285;BME280;60220;53.552;10.092;2022-12-18T05:04:03;102803.75;;;-6.04;75.48
72285;BME280;60220;53.552;10.092;2022-12-18T05:06:33;102805.84;;;-5.90;76.30
72285;BME280;60220;53.552;10.092;2022-12-18T05:09:01;102820.81;;;-5.64;75.53
72285;BME280;60220;53.552;10.092;2022-12-18T05:11:28;102818.06;;;-6.06;75.75
72285;BME280;60220;53.552;10.092;2022-12-18T05:13:55;102818.34;;;-5.83;76.07
72285;BME280;60220;53.552;10.092;2022-12-18T05:16:25;102828.34;;;-5.66;75.84
72285;BME280;60220;53.552;10.092;2022-12-18T05:18:52;102819.63;;;-5.68;74.83
72285;BME280;60220;53.552;10.092;2022-12-18T05:21:21;102822.59;;;-5.73;74.32
72285;BME280;60220;53.552;10.092;2022-12-18T05:23:50;102824.75;;;-5.68;74.58
72285;BME280;60220;53.552;10.092;2022-12-18T05:26:19;102838.53;;;-5.86;75.19
72285;BME280;60220;53.552;10.092;2022-12-18T05:28:49;102836.72;;;-5.97;75.84
72285;BME280;60220;53.552;10.092;2022-12-18T05:31:16;102838.78;;;-6.03;76.40
72285;BME280;60220;53.552;10.092;2022-12-18T05:33:59;102825.69;;;-6.16;76.58
72285;BME280;60220;53.552;10.092;2022-12-18T05:36:28;102832.41;;;-6.27;77.07
72285;BME280;60220;53.552;10.092;2022-12-18T05:38:57;102843.22;;;-6.39;77.38
72285;BME280;60220;53.552;10.092;2022-12-18T05:41:29;102842.47;;;-6.38;77.44
72285;BME280;60220;53.552;10.092;2022-12-18T05:43:58;102839.50;;;-6.14;76.73
72285;BME280;60220;53.552;10.092;2022-12-18T05:46:25;102843.56;;;-6.16;76.25
72285;BME280;60220;53.552;10.092;2022-12-18T05:48:54;102853.19;;;-5.44;74.18
72285;BME280;60220;53.552;10.092;2022-12-18T05:51:21;102851.13;;;-5.69;72.86
72285;BME280;60220;53.552;10.092;2022-12-18T05:53:48;102849.50;;;-5.97;74.76
72285;BME280;60220;53.552;10.092;2022-12-18T05:56:20;102852.03;;;-6.07;76.26
72285;BME280;60220;53.552;10.092;2022-12-18T05:58:51;102857.25;;;-6.44;77.26
72285;BME280;60220;53.552;10.092;2022-12-18T06:01:21;102853.41;;;-6.49;77.43
72285;BME280;60220;53.552;10.092;2022-12-18T06:03:47;102845.13;;;-6.18;77.08
72285;BME280;60220;53.552;10.092;2022-12-18T06:06:15;102845.50;;;-6.42;77.25
72285;BME280;60220;53.552;10.092;2022-12-18T06:08:43;102844.63;;;-6.43;78.19
72285;BME280;60220;53.552;10.092;2022-12-18T06:11:09;102845.59;;;-6.51;77.76
72285;BME280;60220;53.552;10.092;2022-12-18T06:13:38;102847.38;;;-6.21;77.34
72285;BME280;60220;53.552;10.092;2022-12-18T06:16:07;102854.56;;;-6.17;76.66
72285;BME280;60220;53.552;10.092;2022-12-18T06:18:34;102866.13;;;-6.02;75.67
72285;BME280;60220;53.552;10.092;2022-12-18T06:21:04;102862.47;;;-6.24;76.26
72285;BME280;60220;53.552;10.092;2022-12-18T06:23:30;102867.16;;;-6.00;75.43
72285;BME280;60220;53.552;10.092;2022-12-18T06:25:57;102864.47;;;-6.01;75.88
72285;BME280;60220;53.552;10.092;2022-12-18T06:28:26;102866.31;;;-6.19;75.55
72285;BME280;60220;53.552;10.092;2022-12-18T06:30:54;102872.84;;;-6.41;76.86
72285;BME280;60220;53.552;10.092;2022-12-18T06:33:26;102874.88;;;-6.66;77.26
72285;BME280;60220;53.552;10.092;2022-12-18T06:35:53;102878.94;;;-6.49;77.54
72285;BME280;60220;53.552;10.092;2022-12-18T06:38:22;102880.53;;;-6.60;77.55
72285;BME280;60220;53.552;10.092;2022-12-18T06:40:48;102882.00;;;-6.54;77.72
72285;BME280;60220;53.552;10.092;2022-12-18T06:43:15;102879.00;;;-6.11;76.74
72285;BME280;60220;53.552;10.092;2022-12-18T06:45:44;102882.81;;;-6.44;76.97
72285;BME280;60220;53.552;10.092;2022-12-18T06:48:11;102877.19;;;-6.40;76.88
72285;BME280;60220;53.552;10.092;2022-12-18T06:50:43;102887.66;;;-6.19;76.62
72285;BME280;60220;53.552;10.092;2022-12-18T06:53:09;102880.44;;;-6.52;77.11
72285;BME280;60220;53.552;10.092;2022-12-18T06:55:36;102886.63;;;-6.68;77.09
72285;BME280;60220;53.552;10.092;2022-12-18T06:58:02;102885.44;;;-6.72;78.29
72285;BME280;60220;53.552;10.092;2022-12-18T07:00:31;102887.03;;;-6.82;78.08
72285;BME280;60220;53.552;10.092;2022-12-18T07:02:57;102883.66;;;-6.73;78.23
72285;BME280;60220;53.552;10.092;2022-12-18T07:05:24;102879.72;;;-6.69;78.37
72285;BME280;60220;53.552;10.092;2022-12-18T07:07:52;102876.19;;;-6.80;78.22
72285;BME280;60220;53.552;10.092;2022-12-18T07:10:18;102871.09;;;-6.80;78.19
72285;BME280;60220;53.552;10.092;2022-12-18T07:12:45;102869.22;;;-6.91;78.70
72285;BME280;60220;53.552;10.092;2022-12-18T07:15:12;102872.25;;;-6.95;78.48
72285;BME280;60220;53.552;10.092;2022-12-18T07:17:38;102885.31;;;-6.55;77.71
72285;BME280;60220;53.552;10.092;2022-12-18T07:20:13;102889.72;;;-6.81;77.80
72285;BME280;60220;53.552;10.092;2022-12-18T07:22:42;102897.38;;;-6.62;76.97
72285;BME280;60220;53.552;10.092;2022-12-18T07:25:10;102891.34;;;-6.25;78.56
72285;BME280;60220;53.552;10.092;2022-12-18T07:27:37;102886.66;;;-6.77;78.34
72285;BME280;60220;53.552;10.092;2022-12-18T07:30:05;102896.47;;;-6.44;78.56
72285;BME280;60220;53.552;10.092;2022-12-18T07:32:34;102904.16;;;-6.44;77.47
72285;BME280;60220;53.552;10.092;2022-12-18T07:35:01;102905.25;;;-6.50;76.47
72285;BME280;60220;53.552;10.092;2022-12-18T07:37:28;102909.50;;;-6.41;76.71
72285;BME280;60220;53.552;10.092;2022-12-18T07:39:55;102904.22;;;-6.53;76.19
72285;BME280;60220;53.552;10.092;2022-12-18T07:42:26;102911.09;;;-6.52;76.82
72285;BME280;60220;53.552;10.092;2022-12-18T07:44:59;102917.28;;;-6.68;77.20
72285;BME280;60220;53.552;10.092;2022-12-18T07:47:26;102912.19;;;-6.77;77.05
72285;BME280;60220;53.552;10.092;2022-12-18T07:49:53;102912.34;;;-6.94;77.15
72285;BME280;60220;53.552;10.092;2022-12-18T07:52:20;102916.94;;;-6.63;77.19
72285;BME280;60220;53.552;10.092;2022-12-18T07:54:46;102923.88;;;-6.52;76.67
72285;BME280;60220;53.552;10.092;2022-12-18T07:57:14;102927.41;;;-6.60;76.69
72285;BME280;60220;53.552;10.092;2022-12-18T07:59:42;102930.03;;;-6.49;75.99
72285;BME280;60220;53.552;10.092;2022-12-18T08:02:09;102928.03;;;-6.43;76.08
72285;BME280;60220;53.552;10.092;2022-12-18T08:04:36;102927.91;;;-6.64;76.40
72285;BME280;60220;53.552;10.092;2022-12-18T08:07:05;102916.28;;;-6.60;76.50
72285;BME280;60220;53.552;10.092;2022-12-18T08:09:31;102918.69;;;-6.62;76.37
72285;BME280;60220;53.552;10.092;2022-12-18T08:11:58;102912.34;;;-6.57;77.25
72285;BME280;60220;53.552;10.092;2022-12-18T08:14:25;102920.88;;;-6.47;76.46
72285;BME280;60220;53.552;10.092;2022-12-18T08:16:55;102912.28;;;-6.67;76.82
72285;BME280;60220;53.552;10.092;2022-12-18T08:19:22;102907.09;;;-6.39;76.40
72285;BME280;60220;53.552;10.092;2022-12-18T08:21:48;102906.66;;;-6.25;75.78
72285;BME280;60220;53.552;10.092;2022-12-18T08:24:15;102904.25;;;-5.95;75.56
72285;BME280;60220;53.552;10.092;2022-12-18T08:26:44;102912.47;;;-6.36;75.03
72285;BME280;60220;53.552;10.092;2022-12-18T08:29:11;102914.72;;;-6.21;76.43
72285;BME280;60220;53.552;10.092;2022-12-18T08:31:37;102907.88;;;-6.12;77.13
72285;BME280;60220;53.552;10.092;2022-12-18T08:34:05;102908.53;;;-6.14;74.65
72285;BME280;60220;53.552;10.092;2022-12-18T08:36:32;102908.06;;;-6.00;74.25
72285;BME280;60220;53.552;10.092;2022-12-18T08:38:59;102897.59;;;-6.22;74.27
72285;BME280;60220;53.552;10.092;2022-12-18T08:41:26;102899.84;;;-6.06;74.46
72285;BME280;60220;53.552;10.092;2022-12-18T08:43:52;102911.63;;;-6.08;74.53
72285;BME280;60220;53.552;10.092;2022-12-18T08:46:41;102912.44;;;-5.99;74.07
72285;BME280;60220;53.552;10.092;2022-12-18T08:49:11;102907.72;;;-5.84;73.59
72285;BME280;60220;53.552;10.092;2022-12-18T08:51:38;102910.38;;;-6.03;74.06
72285;BME280;60220;53.552;10.092;2022-12-18T08:54:05;102921.69;;;-6.10;74.79
72285;BME280;60220;53.552;10.092;2022-12-18T08:56:32;102900.28;;;-5.22;76.21
72285;BME280;60220;53.552;10.092;2022-12-18T08:58:59;102905.31;;;-5.13;74.64
72285;BME280;60220;53.552;10.092;2022-12-18T09:01:26;102901.56;;;-5.07;72.79
72285;BME280;60220;53.552;10.092;2022-12-18T09:03:52;102898.59;;;-6.01;73.12
72285;BME280;60220;53.552;10.092;2022-12-18T09:06:21;102895.88;;;-5.63;72.75
72285;BME280;60220;53.552;10.092;2022-12-18T09:08:49;102895.88;;;-5.74;73.39
72285;BME280;60220;53.552;10.092;2022-12-18T09:11:24;102901.59;;;-5.76;73.59
72285;BME280;60220;53.552;10.092;2022-12-18T09:13:51;102896.16;;;-5.50;73.65
72285;BME280;60220;53.552;10.092;2022-12-18T09:16:19;102903.13;;;-5.78;72.68
72285;BME280;60220;53.552;10.092;2022-12-18T09:18:46;102906.75;;;-6.05;74.00
72285;BME280;60220;53.552;10.092;2022-12-18T09:21:15;102895.53;;;-5.97;74.03
72285;BME280;60220;53.552;10.092;2022-12-18T09:23:43;102894.59;;;-5.69;73.59
72285;BME280;60220;53.552;10.092;2022-12-18T09:26:10;102891.03;;;-5.60;73.43
72285;BME280;60220;53.552;10.092;2022-12-18T09:28:37;102897.47;;;-5.25;72.31
72285;BME280;60220;53.552;10.092;2022-12-18T09:31:05;102899.00;;;-5.37;72.00
72285;BME280;60220;53.552;10.092;2022-12-18T09:33:33;102902.16;;;-5.60;72.48
72285;BME280;60220;53.552;10.092;2022-12-18T09:36:01;102896.22;;;-4.90;71.63
72285;BME280;60220;53.552;10.092;2022-12-18T09:38:28;102893.13;;;-4.86;72.89
72285;BME280;60220;53.552;10.092;2022-12-18T09:40:59;102902.31;;;-4.67;70.71
72285;BME280;60220;53.552;10.092;2022-12-18T09:43:33;102906.69;;;-4.56;68.94
72285;BME280;60220;53.552;10.092;2022-12-18T09:46:03;102897.63;;;-4.21;69.64
72285;BME280;60220;53.552;10.092;2022-12-18T09:48:34;102904.66;;;-4.18;69.29
72285;BME280;60220;53.552;10.092;2022-12-18T09:51:05;102893.66;;;-4.27;69.32
72285;BME280;60220;53.552;10.092;2022-12-18T09:53:37;102906.66;;;-3.72;68.30
72285;BME280;60220;53.552;10.092;2022-12-18T09:56:12;102901.22;;;-4.19;68.96
72285;BME280;60220;53.552;10.092;2022-12-18T09:58:46;102902.97;;;-4.18;69.47
72285;BME280;60220;53.552;10.092;2022-12-18T10:01:19;102909.75;;;-4.50;70.15
72285;BME280;60220;53.552;10.092;2022-12-18T10:03:47;102905.00;;;-4.04;68.62
72285;BME280;60220;53.552;10.092;2022-12-18T10:06:18;102909.34;;;-4.45;70.09
72285;BME280;60220;53.552;10.092;2022-12-18T10:08:51;102903.50;;;-4.54;71.12
72285;BME280;60220;53.552;10.092;2022-12-18T10:11:32;102903.53;;;-4.32;71.19
72285;BME280;60220;53.552;10.092;2022-12-18T10:14:08;102909.78;;;-4.70;71.61
72285;BME280;60220;53.552;10.092;2022-12-18T10:16:40;102915.75;;;-4.40;71.21
72285;BME280;60220;53.552;10.092;2022-12-18T10:19:29;102906.31;;;-2.55;76.75
72285;BME280;60220;53.552;10.092;2022-12-18T10:22:13;102901.47;;;-3.62;70.13
72285;BME280;60220;53.552;10.092;2022-12-18T10:24:48;102899.19;;;-3.26;66.76
72285;BME280;60220;53.552;10.092;2022-12-18T10:27:23;102915.50;;;-3.14;66.98
72285;BME280;60220;53.552;10.092;2022-12-18T10:29:54;102913.19;;;-3.11;66.18
72285;BME280;60220;53.552;10.092;2022-12-18T10:32:23;102915.97;;;-3.41;67.65
72285;BME280;60220;53.552;10.092;2022-12-18T10:34:53;102917.88;;;-3.38;66.28
72285;BME280;60220;53.552;10.092;2022-12-18T10:37:24;102917.63;;;-3.85;68.66
72285;BME280;60220;53.552;10.092;2022-12-18T10:40:07;102924.91;;;-3.79;68.84
72285;BME280;60220;53.552;10.092;2022-12-18T10:42:37;102924.19;;;-3.01;68.08
72285;BME280;60220;53.552;10.092;2022-12-18T10:45:09;102919.72;;;-2.59;67.68
72285;BME280;60220;53.552;10.092;2022-12-18T10:47:37;102918.59;;;-2.51;67.16
72285;BME280;60220;53.552;10.092;2022-12-18T10:50:18;102917.00;;;-3.39;68.72
72285;BME280;60220;53.552;10.092;2022-12-18T10:52:54;102914.66;;;-3.36;67.84
72285;BME280;60220;53.552;10.092;2022-12-18T10:55:21;102913.19;;;-3.44;67.48
72285;BME280;60220;53.552;10.092;2022-12-18T10:57:49;102909.06;;;-3.96;69.31
72285;BME280;60220;53.552;10.092;2022-12-18T11:00:26;102891.91;;;-3.53;68.90
72285;BME280;60220;53.552;10.092;2022-12-18T11:02:54;102879.59;;;-4.01;69.49
72285;BME280;60220;53.552;10.092;2022-12-18T11:05:27;102880.66;;;-4.09;70.31
72285;BME280;60220;53.552;10.092;2022-12-18T11:07:54;102888.72;;;-3.82;69.78
72285;BME280;60220;53.552;10.092;2022-12-18T11:10:23;102891.94;;;-4.07;69.73
72285;BME280;60220;53.552;10.092;2022-12-18T11:12:53;102896.19;;;-3.85;69.54
72285;BME280;60220;53.552;10.092;2022-12-18T11:15:21;102891.56;;;-3.79;69.06
72285;BME280;60220;53.552;10.092;2022-12-18T11:17:50;102888.03;;;-3.48;68.83
72285;BME280;60220;53.552;10.092;2022-12-18T11:20:27;102887.16;;;-4.02;69.50
72285;BME280;60220;53.552;10.092;2022-12-18T11:22:58;102889.59;;;-3.72;69.37
72285;BME280;60220;53.552;10.092;2022-12-18T11:25:29;102903.59;;;-3.78;69.79
72285;BME280;60220;53.552;10.092;2022-12-18T11:28:00;102893.22;;;-3.58;69.54
72285;BME280;60220;53.552;10.092;2022-12-18T11:30:31;102886.63;;;-3.44;68.55
72285;BME280;60220;53.552;10.092;2022-12-18T11:33:04;102880.38;;;-3.58;69.18
72285;BME280;60220;53.552;10.092;2022-12-18T11:35:39;102867.75;;;-3.45;68.85
72285;BME280;60220;53.552;10.092;2022-12-18T11:38:19;102876.41;;;-3.21;68.62
72285;BME280;60220;53.552;10.092;2022-12-18T11:40:52;102877.16;;;-3.34;68.93
72285;BME280;60220;53.552;10.092;2022-12-18T11:43:27;102871.84;;;-3.47;68.88
72285;BME280;60220;53.552;10.092;2022-12-18T11:46:00;102869.00;;;-3.40;69.49
72285;BME280;60220;53.552;10.092;2022-12-18T11:48:32;102866.41;;;-3.07;68.69
72285;BME280;60220;53.552;10.092;2022-12-18T11:51:02;102874.81;;;-3.31;68.87
72285;BME280;60220;53.552;10.092;2022-12-18T11:53:31;102868.03;;;-2.74;69.04
72285;BME280;60220;53.552;10.092;2022-12-18T11:56:11;102868.34;;;-2.92;67.92
72285;BME280;60220;53.552;10.092;2022-12-18T11:58:45;102859.25;;;-3.11;68.60
72285;BME280;60220;53.552;10.092;2022-12-18T12:01:22;102854.09;;;-3.22;68.60
72285;BME280;60220;53.552;10.092;2022-12-18T12:04:10;102846.53;;;-3.09;68.14
72285;BME280;60220;53.552;10.092;2022-12-18T12:06:49;102849.75;;;-3.12;68.46
72285;BME280;60220;53.552;10.092;2022-12-18T12:09:23;102834.94;;;-3.04;68.50
72285;BME280;60220;53.552;10.092;2022-12-18T12:12:06;102830.53;;;-3.17;68.58
72285;BME280;60220;53.552;10.092;2022-12-18T12:14:47;102832.00;;;-3.20;68.34
72285;BME280;60220;53.552;10.092;2022-12-18T12:17:26;102832.88;;;-3.20;68.63
72285;BME280;60220;53.552;10.092;2022-12-18T12:20:07;102832.47;;;-3.14;68.60
72285;BME280;60220;53.552;10.092;2022-12-18T12:22:45;102832.47;;;-3.03;68.37
72285;BME280;60220;53.552;10.092;2022-12-18T12:25:25;102833.28;;;-2.80;67.83
72285;BME280;60220;53.552;10.092;2022-12-18T12:28:03;102822.25;;;-2.79;67.19
72285;BME280;60220;53.552;10.092;2022-12-18T12:30:44;102805.69;;;-2.94;67.49
72285;BME280;60220;53.552;10.092;2022-12-18T12:33:25;102811.72;;;-2.82;67.21
72285;BME280;60220;53.552;10.092;2022-12-18T12:36:04;102798.31;;;-2.78;67.51
72285;BME280;60220;53.552;10.092;2022-12-18T12:38:36;102799.88;;;-2.57;66.82
72285;BME280;60220;53.552;10.092;2022-12-18T12:41:11;102795.50;;;-2.93;67.39
72285;BME280;60220;53.552;10.092;2022-12-18T12:44:01;102784.25;;;-2.60;66.53
72285;BME280;60220;53.552;10.092;2022-12-18T12:46:31;102782.66;;;-3.05;67.75
72285;BME280;60220;53.552;10.092;2022-12-18T12:49:01;102774.97;;;-2.81;67.22
72285;BME280;60220;53.552;10.092;2022-12-18T12:51:32;102767.88;;;-2.49;67.13
72285;BME280;60220;53.552;10.092;2022-12-18T12:54:01;102760.22;;;-2.12;66.66
72285;BME280;60220;53.552;10.092;2022-12-18T12:56:37;102752.13;;;-2.42;66.09
72285;BME280;60220;53.552;10.092;2022-12-18T12:59:11;102754.81;;;-2.64;66.35
72285;BME280;60220;53.552;10.092;2022-12-18T13:01:49;102753.91;;;-2.41;66.66